sensor_id;sensor_type;location;lat;lon;timestamp;P1;durP1;ratioP1;P2;durP2;ratioP2
7330;SDS011;3706;49.198;7.064;2024-03-08T00:02:18;26.30;;;15.10;;
7330;SDS011;3706;49.198;7.064;2024-03-08T00:04:45;21.93;;;13.40;;
7330;SDS011;3706;49.198;7.064;2024-03-08T00:07:12;23.83;;;12.40;;
7330;SDS011;3706;49.198;7.064;2024-03-08T00:09:39;25.17;;;14.93;;
7330;SDS011;3706;49.198;7.064;2024-03-08T00:12:08;25.47;;;14.73;;
7330;SDS011;3706;49.198;7.064;2024-03-08T00:14:35;24.23;;;15.13;;
7330;SDS011;3706;49.198;7.064;2024-03-08T00:17:03;26.40;;;14.40;;
7330;SDS011;3706;49.198;7.064;2024-03-08T00:19:30;20.63;;;13.60;;
7330;SDS011;3706;49.198;7.064;2024-03-08T00:21:57;23.23;;;15.27;;
7330;SDS011;3706;49.198;7.064;2024-03-08T00:24:25;23.80;;;14.47;;
7330;SDS011;3706;49.198;7.064;2024-03-08T00:26:54;21.93;;;11.67;;
7330;SDS011;3706;49.198;7.064;2024-03-08T00:29:22;21.20;;;10.10;;
7330;SDS011;3706;49.198;7.064;2024-03-08T00:31:49;23.13;;;14.00;;
7330;SDS011;3706;49.198;7.064;2024-03-08T00:34:16;23.83;;;14.27;;
7330;SDS011;3706;49.198;7.064;2024-03-08T00:36:43;21.40;;;13.53;;
7330;SDS011;3706;49.198;7.064;2024-03-08T00:39:10;23.13;;;13.37;;
7330;SDS011;3706;49.198;7.064;2024-03-08T00:41:37;23.10;;;14.03;;
7330;SDS011;3706;49.198;7.064;2024-03-08T00:44:04;24.47;;;13.33;;
7330;SDS011;3706;49.198;7.064;2024-03-08T00:46:32;23.47;;;14.03;;
7330;SDS011;3706;49.198;7.064;2024-03-08T00:48:59;21.47;;;12.87;;
7330;SDS011;3706;49.198;7.064;2024-03-08T00:51:26;24.33;;;13.90;;
7330;SDS011;3706;49.198;7.064;2024-03-08T00:53:53;22.37;;;14.13;;
7330;SDS011;3706;49.198;7.064;2024-03-08T00:56:20;21.73;;;12.60;;
7330;SDS011;3706;49.198;7.064;2024-03-08T00:58:47;23.93;;;15.57;;
7330;SDS011;3706;49.198;7.064;2024-03-08T01:01:14;26.00;;;15.23;;
7330;SDS011;3706;49.198;7.064;2024-03-08T01:03:43;24.53;;;13.43;;
7330;SDS011;3706;49.198;7.064;2024-03-08T01:06:11;23.57;;;14.13;;
7330;SDS011;3706;49.198;7.064;2024-03-08T01:08:38;30.10;;;15.60;;
7330;SDS011;3706;49.198;7.064;2024-03-08T01:11:07;25.23;;;15.40;;
7330;SDS011;3706;49.198;7.064;2024-03-08T01:13:34;22.77;;;14.27;;
7330;SDS011;3706;49.198;7.064;2024-03-08T01:16:01;19.33;;;12.47;;
7330;SDS011;3706;49.198;7.064;2024-03-08T01:18:28;23.33;;;13.87;;
7330;SDS011;3706;49.198;7.064;2024-03-08T01:20:57;22.73;;;14.03;;
7330;SDS011;3706;49.198;7.064;2024-03-08T01:23:24;21.87;;;13.53;;
7330;SDS011;3706;49.198;7.064;2024-03-08T01:25:51;25.77;;;15.23;;
7330;SDS011;3706;49.198;7.064;2024-03-08T01:28:22;25.73;;;15.87;;
7330;SDS011;3706;49.198;7.064;2024-03-08T01:30:49;25.97;;;14.97;;
7330;SDS011;3706;49.198;7.064;2024-03-08T01:33:20;24.87;;;14.93;;
7330;SDS011;3706;49.198;7.064;2024-03-08T01:35:47;23.73;;;14.67;;
7330;SDS011;3706;49.198;7.064;2024-03-08T01:38:16;23.07;;;15.03;;
7330;SDS011;3706;49.198;7.064;2024-03-08T01:40:43;24.17;;;14.13;;
7330;SDS011;3706;49.198;7.064;2024-03-08T01:43:17;23.97;;;15.13;;
7330;SDS011;3706;49.198;7.064;2024-03-08T01:45:45;26.27;;;15.10;;
7330;SDS011;3706;49.198;7.064;2024-03-08T01:48:12;26.47;;;13.63;;
7330;SDS011;3706;49.198;7.064;2024-03-08T01:50:40;20.63;;;11.93;;
7330;SDS011;3706;49.198;7.064;2024-03-08T01:53:07;23.83;;;15.53;;
7330;SDS011;3706;49.198;7.064;2024-03-08T01:55:36;26.93;;;15.47;;
7330;SDS011;3706;49.198;7.064;2024-03-08T01:58:04;25.73;;;15.30;;
7330;SDS011;3706;49.198;7.064;2024-03-08T02:00:31;29.70;;;15.80;;
7330;SDS011;3706;49.198;7.064;2024-03-08T02:03:00;23.90;;;14.60;;
7330;SDS011;3706;49.198;7.064;2024-03-08T02:05:27;25.77;;;14.03;;
7330;SDS011;3706;49.198;7.064;2024-03-08T02:07:54;22.60;;;14.17;;
7330;SDS011;3706;49.198;7.064;2024-03-08T02:10:22;24.23;;;14.67;;
7330;SDS011;3706;49.198;7.064;2024-03-08T02:12:50;25.60;;;15.00;;
7330;SDS011;3706;49.198;7.064;2024-03-08T02:15:17;26.80;;;15.90;;
7330;SDS011;3706;49.198;7.064;2024-03-08T02:17:44;24.80;;;15.57;;
7330;SDS011;3706;49.198;7.064;2024-03-08T02:20:12;25.37;;;14.83;;
7330;SDS011;3706;49.198;7.064;2024-03-08T02:22:40;20.97;;;12.67;;
7330;SDS011;3706;49.198;7.064;2024-03-08T02:25:08;21.97;;;13.63;;
7330;SDS011;3706;49.198;7.064;2024-03-08T02:27:35;21.67;;;14.20;;
7330;SDS011;3706;49.198;7.064;2024-03-08T02:30:03;27.87;;;15.60;;
7330;SDS011;3706;49.198;7.064;2024-03-08T02:32:31;25.23;;;14.03;;
7330;SDS011;3706;49.198;7.064;2024-03-08T02:34:58;26.40;;;15.33;;
7330;SDS011;3706;49.198;7.064;2024-03-08T02:37:26;25.97;;;16.03;;
7330;SDS011;3706;49.198;7.064;2024-03-08T02:39:55;24.20;;;15.30;;
7330;SDS011;3706;49.198;7.064;2024-03-08T02:42:22;25.73;;;16.00;;
7330;SDS011;3706;49.198;7.064;2024-03-08T02:44:49;22.67;;;15.20;;
7330;SDS011;3706;49.198;7.064;2024-03-08T02:47:16;27.07;;;15.03;;
7330;SDS011;3706;49.198;7.064;2024-03-08T02:49:43;25.03;;;15.13;;
7330;SDS011;3706;49.198;7.064;2024-03-08T02:52:10;23.93;;;14.30;;
7330;SDS011;3706;49.198;7.064;2024-03-08T02:54:37;26.57;;;15.53;;
7330;SDS011;3706;49.198;7.064;2024-03-08T02:57:06;25.10;;;15.30;;
7330;SDS011;3706;49.198;7.064;2024-03-08T02:59:33;26.07;;;15.57;;
7330;SDS011;3706;49.198;7.064;2024-03-08T03:02:00;21.50;;;13.07;;
7330;SDS011;3706;49.198;7.064;2024-03-08T03:04:27;26.10;;;16.23;;
7330;SDS011;3706;49.198;7.064;2024-03-08T03:06:54;24.17;;;14.40;;
7330;SDS011;3706;49.198;7.064;2024-03-08T03:09:21;23.07;;;13.03;;
7330;SDS011;3706;49.198;7.064;2024-03-08T03:11:52;22.13;;;12.87;;
7330;SDS011;3706;49.198;7.064;2024-03-08T03:14:22;23.00;;;13.00;;
7330;SDS011;3706;49.198;7.064;2024-03-08T03:16:49;22.57;;;11.97;;
7330;SDS011;3706;49.198;7.064;2024-03-08T03:19:16;29.73;;;15.70;;
7330;SDS011;3706;49.198;7.064;2024-03-08T03:21:43;29.37;;;16.07;;
7330;SDS011;3706;49.198;7.064;2024-03-08T03:24:10;20.00;;;12.93;;
7330;SDS011;3706;49.198;7.064;2024-03-08T03:26:37;22.77;;;14.80;;
7330;SDS011;3706;49.198;7.064;2024-03-08T03:29:05;21.67;;;14.03;;
7330;SDS011;3706;49.198;7.064;2024-03-08T03:31:36;26.27;;;16.10;;
7330;SDS011;3706;49.198;7.064;2024-03-08T03:34:03;27.10;;;15.60;;
7330;SDS011;3706;49.198;7.064;2024-03-08T03:36:34;26.70;;;15.90;;
7330;SDS011;3706;49.198;7.064;2024-03-08T03:39:03;25.67;;;14.43;;
7330;SDS011;3706;49.198;7.064;2024-03-08T03:41:35;26.03;;;14.23;;
7330;SDS011;3706;49.198;7.064;2024-03-08T03:44:03;22.33;;;12.13;;
7330;SDS011;3706;49.198;7.064;2024-03-08T03:46:31;26.83;;;14.43;;
7330;SDS011;3706;49.198;7.064;2024-03-08T03:49:00;25.33;;;14.97;;
7330;SDS011;3706;49.198;7.064;2024-03-08T03:51:28;24.03;;;13.80;;
7330;SDS011;3706;49.198;7.064;2024-03-08T03:53:55;25.10;;;15.13;;
7330;SDS011;3706;49.198;7.064;2024-03-08T03:56:24;24.50;;;15.00;;
7330;SDS011;3706;49.198;7.064;2024-03-08T03:58:52;21.77;;;11.77;;
7330;SDS011;3706;49.198;7.064;2024-03-08T04:01:19;20.90;;;12.73;;
7330;SDS011;3706;49.198;7.064;2024-03-08T04:03:46;25.83;;;15.10;;
7330;SDS011;3706;49.198;7.064;2024-03-08T04:06:14;24.13;;;14.53;;
7330;SDS011;3706;49.198;7.064;2024-03-08T04:08:41;24.33;;;15.67;;
7330;SDS011;3706;49.198;7.064;2024-03-08T04:11:08;23.47;;;13.37;;
7330;SDS011;3706;49.198;7.064;2024-03-08T04:13:35;25.97;;;15.80;;
7330;SDS011;3706;49.198;7.064;2024-03-08T04:16:03;27.20;;;14.17;;
7330;SDS011;3706;49.198;7.064;2024-03-08T04:18:33;22.13;;;13.43;;
7330;SDS011;3706;49.198;7.064;2024-03-08T04:21:00;27.60;;;14.97;;
7330;SDS011;3706;49.198;7.064;2024-03-08T04:23:29;22.07;;;13.73;;
7330;SDS011;3706;49.198;7.064;2024-03-08T04:25:56;25.17;;;14.90;;
7330;SDS011;3706;49.198;7.064;2024-03-08T04:28:23;22.50;;;12.93;;
7330;SDS011;3706;49.198;7.064;2024-03-08T04:30:50;25.97;;;14.77;;
7330;SDS011;3706;49.198;7.064;2024-03-08T04:33:17;17.83;;;10.60;;
7330;SDS011;3706;49.198;7.064;2024-03-08T04:35:45;21.27;;;13.07;;
7330;SDS011;3706;49.198;7.064;2024-03-08T04:38:12;28.07;;;14.77;;
7330;SDS011;3706;49.198;7.064;2024-03-08T04:40:41;25.13;;;14.80;;
7330;SDS011;3706;49.198;7.064;2024-03-08T04:43:08;23.50;;;14.40;;
7330;SDS011;3706;49.198;7.064;2024-03-08T04:45:36;25.77;;;14.83;;
7330;SDS011;3706;49.198;7.064;2024-03-08T04:48:03;22.13;;;14.97;;
7330;SDS011;3706;49.198;7.064;2024-03-08T04:50:30;27.57;;;14.37;;
7330;SDS011;3706;49.198;7.064;2024-03-08T04:52:57;21.93;;;12.47;;
7330;SDS011;3706;49.198;7.064;2024-03-08T04:55:24;22.03;;;13.57;;
7330;SDS011;3706;49.198;7.064;2024-03-08T04:57:52;23.77;;;14.03;;
7330;SDS011;3706;49.198;7.064;2024-03-08T05:00:19;26.03;;;14.80;;
7330;SDS011;3706;49.198;7.064;2024-03-08T05:02:46;25.73;;;15.57;;
7330;SDS011;3706;49.198;7.064;2024-03-08T05:05:13;20.60;;;13.90;;
7330;SDS011;3706;49.198;7.064;2024-03-08T05:07:40;23.90;;;13.97;;
7330;SDS011;3706;49.198;7.064;2024-03-08T05:10:08;23.03;;;14.10;;
7330;SDS011;3706;49.198;7.064;2024-03-08T05:12:35;27.03;;;15.43;;
7330;SDS011;3706;49.198;7.064;2024-03-08T05:15:05;24.43;;;14.73;;
7330;SDS011;3706;49.198;7.064;2024-03-08T05:17:33;20.27;;;11.00;;
7330;SDS011;3706;49.198;7.064;2024-03-08T05:20:00;25.67;;;14.17;;
7330;SDS011;3706;49.198;7.064;2024-03-08T05:22:27;15.97;;;10.13;;
7330;SDS011;3706;49.198;7.064;2024-03-08T05:24:54;23.53;;;14.37;;
7330;SDS011;3706;49.198;7.064;2024-03-08T05:27:21;24.07;;;15.23;;
7330;SDS011;3706;49.198;7.064;2024-03-08T05:29:48;23.67;;;15.40;;
7330;SDS011;3706;49.198;7.064;2024-03-08T05:32:17;24.67;;;15.00;;
7330;SDS011;3706;49.198;7.064;2024-03-08T05:34:44;24.50;;;14.53;;
7330;SDS011;3706;49.198;7.064;2024-03-08T05:37:11;24.07;;;14.07;;
7330;SDS011;3706;49.198;7.064;2024-03-08T05:39:37;23.20;;;13.67;;
7330;SDS011;3706;49.198;7.064;2024-03-08T05:42:06;25.80;;;13.33;;
7330;SDS011;3706;49.198;7.064;2024-03-08T05:44:33;23.23;;;13.93;;
7330;SDS011;3706;49.198;7.064;2024-03-08T05:47:00;24.93;;;14.40;;
7330;SDS011;3706;49.198;7.064;2024-03-08T05:49:29;19.30;;;11.90;;
7330;SDS011;3706;49.198;7.064;2024-03-08T05:51:56;19.63;;;11.53;;
7330;SDS011;3706;49.198;7.064;2024-03-08T05:54:24;22.63;;;15.03;;
7330;SDS011;3706;49.198;7.064;2024-03-08T05:56:52;24.30;;;15.23;;
7330;SDS011;3706;49.198;7.064;2024-03-08T05:59:21;25.50;;;14.33;;
7330;SDS011;3706;49.198;7.064;2024-03-08T06:01:48;23.50;;;13.77;;
7330;SDS011;3706;49.198;7.064;2024-03-08T06:04:16;21.97;;;13.80;;
7330;SDS011;3706;49.198;7.064;2024-03-08T06:06:45;26.87;;;14.90;;
7330;SDS011;3706;49.198;7.064;2024-03-08T06:09:12;25.27;;;15.33;;
7330;SDS011;3706;49.198;7.064;2024-03-08T06:11:42;25.63;;;13.30;;
7330;SDS011;3706;49.198;7.064;2024-03-08T06:14:09;25.40;;;14.67;;
7330;SDS011;3706;49.198;7.064;2024-03-08T06:16:36;27.20;;;14.53;;
7330;SDS011;3706;49.198;7.064;2024-03-08T06:19:03;23.67;;;13.50;;
7330;SDS011;3706;49.198;7.064;2024-03-08T06:21:30;23.23;;;14.40;;
7330;SDS011;3706;49.198;7.064;2024-03-08T06:23:59;23.60;;;12.43;;
7330;SDS011;3706;49.198;7.064;2024-03-08T06:26:26;23.23;;;14.33;;
7330;SDS011;3706;49.198;7.064;2024-03-08T06:28:53;26.47;;;14.50;;
7330;SDS011;3706;49.198;7.064;2024-03-08T06:31:21;21.43;;;13.77;;
7330;SDS011;3706;49.198;7.064;2024-03-08T06:33:48;23.10;;;12.50;;
7330;SDS011;3706;49.198;7.064;2024-03-08T06:36:15;25.80;;;14.00;;
7330;SDS011;3706;49.198;7.064;2024-03-08T06:38:44;26.33;;;14.73;;
7330;SDS011;3706;49.198;7.064;2024-03-08T06:41:12;21.70;;;13.07;;
7330;SDS011;3706;49.198;7.064;2024-03-08T06:43:41;22.17;;;13.57;;
7330;SDS011;3706;49.198;7.064;2024-03-08T06:46:08;15.27;;;9.67;;
7330;SDS011;3706;49.198;7.064;2024-03-08T06:48:37;24.43;;;14.23;;
7330;SDS011;3706;49.198;7.064;2024-03-08T06:51:04;20.33;;;13.17;;
7330;SDS011;3706;49.198;7.064;2024-03-08T06:53:32;20.87;;;12.43;;
7330;SDS011;3706;49.198;7.064;2024-03-08T06:56:00;20.80;;;13.20;;
7330;SDS011;3706;49.198;7.064;2024-03-08T06:58:28;20.70;;;12.10;;
7330;SDS011;3706;49.198;7.064;2024-03-08T07:00:55;17.83;;;11.30;;
7330;SDS011;3706;49.198;7.064;2024-03-08T07:03:25;20.57;;;11.87;;
7330;SDS011;3706;49.198;7.064;2024-03-08T07:05:54;23.17;;;12.37;;
7330;SDS011;3706;49.198;7.064;2024-03-08T07:08:21;16.70;;;10.33;;
7330;SDS011;3706;49.198;7.064;2024-03-08T07:10:48;14.60;;;8.40;;
7330;SDS011;3706;49.198;7.064;2024-03-08T07:13:15;16.90;;;12.37;;
7330;SDS011;3706;49.198;7.064;2024-03-08T07:15:44;14.73;;;10.17;;
7330;SDS011;3706;49.198;7.064;2024-03-08T07:18:11;15.63;;;11.07;;
7330;SDS011;3706;49.198;7.064;2024-03-08T07:20:40;17.13;;;11.17;;
7330;SDS011;3706;49.198;7.064;2024-03-08T07:23:08;14.53;;;9.70;;
7330;SDS011;3706;49.198;7.064;2024-03-08T07:25:35;18.10;;;11.10;;
7330;SDS011;3706;49.198;7.064;2024-03-08T07:28:04;12.57;;;7.70;;
7330;SDS011;3706;49.198;7.064;2024-03-08T07:30:32;15.87;;;10.67;;
7330;SDS011;3706;49.198;7.064;2024-03-08T07:33:18;16.13;;;11.53;;
7330;SDS011;3706;49.198;7.064;2024-03-08T07:35:47;18.03;;;11.80;;
7330;SDS011;3706;49.198;7.064;2024-03-08T07:38:15;14.27;;;10.73;;
7330;SDS011;3706;49.198;7.064;2024-03-08T07:40:42;16.47;;;11.30;;
7330;SDS011;3706;49.198;7.064;2024-03-08T07:43:10;14.63;;;10.33;;
7330;SDS011;3706;49.198;7.064;2024-03-08T07:45:37;16.33;;;10.17;;
7330;SDS011;3706;49.198;7.064;2024-03-08T07:48:05;14.57;;;10.90;;
7330;SDS011;3706;49.198;7.064;2024-03-08T07:50:36;16.60;;;11.13;;
7330;SDS011;3706;49.198;7.064;2024-03-08T07:53:04;11.47;;;9.50;;
7330;SDS011;3706;49.198;7.064;2024-03-08T07:55:32;13.27;;;9.30;;
7330;SDS011;3706;49.198;7.064;2024-03-08T07:58:00;13.83;;;10.13;;
7330;SDS011;3706;49.198;7.064;2024-03-08T08:00:28;13.77;;;10.23;;
7330;SDS011;3706;49.198;7.064;2024-03-08T08:02:56;16.17;;;11.17;;
7330;SDS011;3706;49.198;7.064;2024-03-08T08:05:23;16.47;;;11.27;;
7330;SDS011;3706;49.198;7.064;2024-03-08T08:07:52;13.37;;;10.60;;
7330;SDS011;3706;49.198;7.064;2024-03-08T08:10:19;15.27;;;11.47;;
7330;SDS011;3706;49.198;7.064;2024-03-08T08:12:47;14.93;;;10.70;;
7330;SDS011;3706;49.198;7.064;2024-03-08T08:15:15;16.33;;;11.10;;
7330;SDS011;3706;49.198;7.064;2024-03-08T08:17:43;15.67;;;11.07;;
7330;SDS011;3706;49.198;7.064;2024-03-08T08:20:10;14.47;;;10.97;;
7330;SDS011;3706;49.198;7.064;2024-03-08T08:22:38;13.93;;;11.27;;
7330;SDS011;3706;49.198;7.064;2024-03-08T08:25:07;14.17;;;10.60;;
7330;SDS011;3706;49.198;7.064;2024-03-08T08:27:37;15.30;;;10.53;;
7330;SDS011;3706;49.198;7.064;2024-03-08T08:30:05;13.10;;;9.47;;
7330;SDS011;3706;49.198;7.064;2024-03-08T08:32:33;15.40;;;10.30;;
7330;SDS011;3706;49.198;7.064;2024-03-08T08:35:01;16.70;;;11.20;;
7330;SDS011;3706;49.198;7.064;2024-03-08T08:37:29;11.87;;;8.10;;
7330;SDS011;3706;49.198;7.064;2024-03-08T08:39:56;16.17;;;11.13;;
7330;SDS011;3706;49.198;7.064;2024-03-08T08:42:25;16.17;;;11.43;;
7330;SDS011;3706;49.198;7.064;2024-03-08T08:44:53;15.87;;;10.97;;
7330;SDS011;3706;49.198;7.064;2024-03-08T08:47:22;14.03;;;10.50;;
7330;SDS011;3706;49.198;7.064;2024-03-08T08:49:49;13.20;;;9.37;;
7330;SDS011;3706;49.198;7.064;2024-03-08T08:52:16;14.13;;;10.20;;
7330;SDS011;3706;49.198;7.064;2024-03-08T08:54:43;13.23;;;6.87;;
7330;SDS011;3706;49.198;7.064;2024-03-08T08:57:11;16.70;;;11.73;;
7330;SDS011;3706;49.198;7.064;2024-03-08T08:59:40;15.20;;;11.03;;
7330;SDS011;3706;49.198;7.064;2024-03-08T09:02:07;15.30;;;10.97;;
7330;SDS011;3706;49.198;7.064;2024-03-08T09:04:35;15.30;;;10.63;;
7330;SDS011;3706;49.198;7.064;2024-03-08T09:07:02;15.50;;;10.33;;
7330;SDS011;3706;49.198;7.064;2024-03-08T09:09:31;13.83;;;9.30;;
7330;SDS011;3706;49.198;7.064;2024-03-08T09:11:58;14.37;;;10.87;;
7330;SDS011;3706;49.198;7.064;2024-03-08T09:14:26;15.73;;;11.73;;
7330;SDS011;3706;49.198;7.064;2024-03-08T09:16:54;15.60;;;10.30;;
7330;SDS011;3706;49.198;7.064;2024-03-08T09:19:21;15.33;;;10.23;;
7330;SDS011;3706;49.198;7.064;2024-03-08T09:21:51;15.83;;;9.90;;
7330;SDS011;3706;49.198;7.064;2024-03-08T09:24:18;14.60;;;10.33;;
7330;SDS011;3706;49.198;7.064;2024-03-08T09:26:45;14.63;;;10.40;;
7330;SDS011;3706;49.198;7.064;2024-03-08T09:29:12;18.33;;;11.73;;
7330;SDS011;3706;49.198;7.064;2024-03-08T09:31:39;13.90;;;8.93;;
7330;SDS011;3706;49.198;7.064;2024-03-08T09:34:08;14.63;;;9.83;;
7330;SDS011;3706;49.198;7.064;2024-03-08T09:36:35;15.60;;;11.00;;
7330;SDS011;3706;49.198;7.064;2024-03-08T09:39:02;15.47;;;9.13;;
7330;SDS011;3706;49.198;7.064;2024-03-08T09:41:32;17.67;;;10.27;;
7330;SDS011;3706;49.198;7.064;2024-03-08T09:43:59;14.17;;;9.33;;
7330;SDS011;3706;49.198;7.064;2024-03-08T09:46:27;17.67;;;11.70;;
7330;SDS011;3706;49.198;7.064;2024-03-08T09:48:53;16.67;;;10.83;;
7330;SDS011;3706;49.198;7.064;2024-03-08T09:51:24;17.93;;;12.23;;
7330;SDS011;3706;49.198;7.064;2024-03-08T09:53:55;15.97;;;11.17;;
7330;SDS011;3706;49.198;7.064;2024-03-08T09:56:23;17.27;;;12.03;;
7330;SDS011;3706;49.198;7.064;2024-03-08T09:58:52;16.37;;;11.10;;
7330;SDS011;3706;49.198;7.064;2024-03-08T10:01:45;16.97;;;11.27;;
7330;SDS011;3706;49.198;7.064;2024-03-08T10:04:12;15.23;;;11.30;;
7330;SDS011;3706;49.198;7.064;2024-03-08T10:06:40;15.40;;;10.83;;
7330;SDS011;3706;49.198;7.064;2024-03-08T10:09:08;17.77;;;11.93;;
7330;SDS011;3706;49.198;7.064;2024-03-08T10:11:37;16.53;;;11.73;;
7330;SDS011;3706;49.198;7.064;2024-03-08T10:14:04;12.63;;;8.90;;
7330;SDS011;3706;49.198;7.064;2024-03-08T10:16:31;16.20;;;10.27;;
7330;SDS011;3706;49.198;7.064;2024-03-08T10:18:59;16.17;;;10.37;;
7330;SDS011;3706;49.198;7.064;2024-03-08T10:21:26;11.10;;;7.20;;
7330;SDS011;3706;49.198;7.064;2024-03-08T10:23:55;16.13;;;10.53;;
7330;SDS011;3706;49.198;7.064;2024-03-08T10:26:23;15.27;;;11.07;;
7330;SDS011;3706;49.198;7.064;2024-03-08T10:28:51;16.47;;;11.33;;
7330;SDS011;3706;49.198;7.064;2024-03-08T10:31:19;13.00;;;9.40;;
7330;SDS011;3706;49.198;7.064;2024-03-08T10:33:46;16.07;;;11.10;;
7330;SDS011;3706;49.198;7.064;2024-03-08T10:36:15;16.77;;;11.00;;
7330;SDS011;3706;49.198;7.064;2024-03-08T10:38:43;16.87;;;11.23;;
7330;SDS011;3706;49.198;7.064;2024-03-08T10:41:13;18.53;;;12.20;;
7330;SDS011;3706;49.198;7.064;2024-03-08T10:43:46;14.27;;;9.93;;
7330;SDS011;3706;49.198;7.064;2024-03-08T10:46:27;17.40;;;12.47;;
7330;SDS011;3706;49.198;7.064;2024-03-08T10:49:00;17.80;;;11.70;;
7330;SDS011;3706;49.198;7.064;2024-03-08T10:51:30;14.13;;;10.27;;
7330;SDS011;3706;49.198;7.064;2024-03-08T10:53:58;15.53;;;10.77;;
7330;SDS011;3706;49.198;7.064;2024-03-08T10:56:30;14.77;;;11.03;;
7330;SDS011;3706;49.198;7.064;2024-03-08T10:58:57;13.93;;;10.13;;
7330;SDS011;3706;49.198;7.064;2024-03-08T11:01:24;14.00;;;9.50;;
7330;SDS011;3706;49.198;7.064;2024-03-08T11:03:52;14.50;;;10.60;;
7330;SDS011;3706;49.198;7.064;2024-03-08T11:06:29;18.27;;;11.60;;
7330;SDS011;3706;49.198;7.064;2024-03-08T11:08:58;13.93;;;10.77;;
7330;SDS011;3706;49.198;7.064;2024-03-08T11:11:26;13.90;;;10.77;;
7330;SDS011;3706;49.198;7.064;2024-03-08T11:13:56;13.77;;;10.43;;
7330;SDS011;3706;49.198;7.064;2024-03-08T11:16:37;16.40;;;11.63;;
7330;SDS011;3706;49.198;7.064;2024-03-08T11:19:22;14.30;;;9.13;;
7330;SDS011;3706;49.198;7.064;2024-03-08T11:21:56;15.93;;;11.57;;
7330;SDS011;3706;49.198;7.064;2024-03-08T11:24:24;15.33;;;10.87;;
7330;SDS011;3706;49.198;7.064;2024-03-08T11:26:54;12.87;;;10.43;;
7330;SDS011;3706;49.198;7.064;2024-03-08T11:29:36;14.97;;;11.40;;
7330;SDS011;3706;49.198;7.064;2024-03-08T11:32:05;14.33;;;10.47;;
7330;SDS011;3706;49.198;7.064;2024-03-08T11:34:36;13.60;;;10.17;;
7330;SDS011;3706;49.198;7.064;2024-03-08T11:37:04;15.30;;;11.60;;
7330;SDS011;3706;49.198;7.064;2024-03-08T11:39:34;13.33;;;9.63;;
7330;SDS011;3706;49.198;7.064;2024-03-08T11:42:03;11.50;;;7.87;;
7330;SDS011;3706;49.198;7.064;2024-03-08T11:44:30;12.83;;;8.87;;
7330;SDS011;3706;49.198;7.064;2024-03-08T11:46:59;15.53;;;11.17;;
7330;SDS011;3706;49.198;7.064;2024-03-08T11:49:26;14.73;;;11.00;;
7330;SDS011;3706;49.198;7.064;2024-03-08T11:51:53;13.33;;;8.90;;
7330;SDS011;3706;49.198;7.064;2024-03-08T11:54:21;15.67;;;10.50;;
7330;SDS011;3706;49.198;7.064;2024-03-08T11:56:49;12.80;;;10.30;;
7330;SDS011;3706;49.198;7.064;2024-03-08T11:59:20;14.47;;;10.63;;
7330;SDS011;3706;49.198;7.064;2024-03-08T12:01:59;13.83;;;10.73;;
7330;SDS011;3706;49.198;7.064;2024-03-08T12:04:27;14.70;;;10.80;;
7330;SDS011;3706;49.198;7.064;2024-03-08T12:06:54;14.93;;;10.53;;
7330;SDS011;3706;49.198;7.064;2024-03-08T12:09:21;12.57;;;10.63;;
7330;SDS011;3706;49.198;7.064;2024-03-08T12:11:48;12.37;;;10.43;;
7330;SDS011;3706;49.198;7.064;2024-03-08T12:14:16;13.27;;;10.67;;
7330;SDS011;3706;49.198;7.064;2024-03-08T12:16:43;13.13;;;10.73;;
7330;SDS011;3706;49.198;7.064;2024-03-08T12:19:11;15.23;;;11.47;;
7330;SDS011;3706;49.198;7.064;2024-03-08T12:21:38;11.30;;;8.37;;
7330;SDS011;3706;49.198;7.064;2024-03-08T12:24:14;10.57;;;8.83;;
7330;SDS011;3706;49.198;7.064;2024-03-08T12:26:44;14.27;;;10.47;;
7330;SDS011;3706;49.198;7.064;2024-03-08T12:29:20;14.77;;;10.67;;
7330;SDS011;3706;49.198;7.064;2024-03-08T12:31:50;15.07;;;11.50;;
7330;SDS011;3706;49.198;7.064;2024-03-08T12:34:20;14.83;;;10.40;;
7330;SDS011;3706;49.198;7.064;2024-03-08T12:36:47;14.33;;;10.87;;
7330;SDS011;3706;49.198;7.064;2024-03-08T12:39:17;13.63;;;11.00;;
7330;SDS011;3706;49.198;7.064;2024-03-08T12:41:47;14.70;;;11.33;;
7330;SDS011;3706;49.198;7.064;2024-03-08T12:44:16;13.23;;;11.80;;
7330;SDS011;3706;49.198;7.064;2024-03-08T12:46:44;14.97;;;11.70;;
7330;SDS011;3706;49.198;7.064;2024-03-08T12:49:11;11.37;;;9.30;;
7330;SDS011;3706;49.198;7.064;2024-03-08T12:51:39;15.23;;;11.17;;
7330;SDS011;3706;49.198;7.064;2024-03-08T12:54:06;13.37;;;10.53;;
7330;SDS011;3706;49.198;7.064;2024-03-08T12:56:34;13.93;;;10.73;;
7330;SDS011;3706;49.198;7.064;2024-03-08T12:59:02;13.67;;;11.10;;
7330;SDS011;3706;49.198;7.064;2024-03-08T13:01:30;13.90;;;10.07;;
7330;SDS011;3706;49.198;7.064;2024-03-08T13:03:58;14.47;;;10.40;;
7330;SDS011;3706;49.198;7.064;2024-03-08T13:06:25;16.57;;;7.47;;
7330;SDS011;3706;49.198;7.064;2024-03-08T13:08:55;12.93;;;10.43;;
7330;SDS011;3706;49.198;7.064;2024-03-08T13:11:23;13.53;;;10.43;;
7330;SDS011;3706;49.198;7.064;2024-03-08T13:13:50;13.30;;;11.10;;
7330;SDS011;3706;49.198;7.064;2024-03-08T13:16:17;16.00;;;9.73;;
7330;SDS011;3706;49.198;7.064;2024-03-08T13:18:44;15.00;;;10.73;;
7330;SDS011;3706;49.198;7.064;2024-03-08T13:21:13;14.10;;;9.80;;
7330;SDS011;3706;49.198;7.064;2024-03-08T13:23:43;14.87;;;7.93;;
7330;SDS011;3706;49.198;7.064;2024-03-08T13:26:15;13.40;;;9.97;;
7330;SDS011;3706;49.198;7.064;2024-03-08T13:28:43;14.37;;;11.67;;
7330;SDS011;3706;49.198;7.064;2024-03-08T13:31:11;13.17;;;9.90;;
7330;SDS011;3706;49.198;7.064;2024-03-08T13:33:40;13.73;;;10.23;;
7330;SDS011;3706;49.198;7.064;2024-03-08T13:36:07;14.63;;;11.00;;
7330;SDS011;3706;49.198;7.064;2024-03-08T13:38:40;13.30;;;10.40;;
7330;SDS011;3706;49.198;7.064;2024-03-08T13:41:08;14.07;;;10.43;;
7330;SDS011;3706;49.198;7.064;2024-03-08T13:43:37;15.23;;;11.13;;
7330;SDS011;3706;49.198;7.064;2024-03-08T13:46:05;13.43;;;10.40;;
7330;SDS011;3706;49.198;7.064;2024-03-08T13:48:32;14.63;;;10.00;;
7330;SDS011;3706;49.198;7.064;2024-03-08T13:50:59;14.10;;;9.50;;
7330;SDS011;3706;49.198;7.064;2024-03-08T13:53:26;14.60;;;9.87;;
7330;SDS011;3706;49.198;7.064;2024-03-08T13:55:53;14.17;;;10.27;;
7330;SDS011;3706;49.198;7.064;2024-03-08T13:58:21;13.07;;;9.10;;
7330;SDS011;3706;49.198;7.064;2024-03-08T14:00:50;13.60;;;9.00;;
7330;SDS011;3706;49.198;7.064;2024-03-08T14:03:17;11.70;;;9.47;;
7330;SDS011;3706;49.198;7.064;2024-03-08T14:05:44;11.03;;;8.60;;
7330;SDS011;3706;49.198;7.064;2024-03-08T14:08:11;14.17;;;9.47;;
7330;SDS011;3706;49.198;7.064;2024-03-08T14:10:39;14.43;;;10.07;;
7330;SDS011;3706;49.198;7.064;2024-03-08T14:13:07;14.43;;;10.00;;
7330;SDS011;3706;49.198;7.064;2024-03-08T14:15:34;13.13;;;9.13;;
7330;SDS011;3706;49.198;7.064;2024-03-08T14:18:03;15.03;;;10.17;;
7330;SDS011;3706;49.198;7.064;2024-03-08T14:20:31;14.93;;;10.33;;
7330;SDS011;3706;49.198;7.064;2024-03-08T14:23:00;15.43;;;10.63;;
7330;SDS011;3706;49.198;7.064;2024-03-08T14:25:28;11.33;;;9.03;;
7330;SDS011;3706;49.198;7.064;2024-03-08T14:27:55;14.40;;;9.77;;
7330;SDS011;3706;49.198;7.064;2024-03-08T14:30:27;15.27;;;9.97;;
7330;SDS011;3706;49.198;7.064;2024-03-08T14:33:04;15.40;;;10.30;;
7330;SDS011;3706;49.198;7.064;2024-03-08T14:35:34;12.63;;;8.43;;
7330;SDS011;3706;49.198;7.064;2024-03-08T14:38:01;13.30;;;7.40;;
7330;SDS011;3706;49.198;7.064;2024-03-08T14:40:29;10.90;;;7.17;;
7330;SDS011;3706;49.198;7.064;2024-03-08T14:42:56;15.90;;;10.57;;
7330;SDS011;3706;49.198;7.064;2024-03-08T14:45:23;16.27;;;10.93;;
7330;SDS011;3706;49.198;7.064;2024-03-08T14:47:51;12.37;;;8.87;;
7330;SDS011;3706;49.198;7.064;2024-03-08T14:50:22;13.77;;;10.07;;
7330;SDS011;3706;49.198;7.064;2024-03-08T14:52:50;14.93;;;10.57;;
7330;SDS011;3706;49.198;7.064;2024-03-08T14:55:18;12.17;;;9.00;;
7330;SDS011;3706;49.198;7.064;2024-03-08T14:57:47;14.90;;;11.33;;